createdAt,value
2017-03-15T00:00:19.898Z,21.23
2017-03-15T00:00:39.200Z,21.26
2017-03-15T00:00:57.466Z,21.24
2017-03-15T00:01:16.252Z,21.23
2017-03-15T00:01:34.534Z,21.2
2017-03-15T00:01:53.437Z,21.24
2017-03-15T00:02:12.244Z,21.12
2017-03-15T00:02:31.074Z,21.21
2017-03-15T00:02:50.369Z,21.21
2017-03-15T00:03:09.171Z,21.23
2017-03-15T00:03:28.474Z,21.17
2017-03-15T00:03:46.750Z,21.2
2017-03-15T00:04:06.060Z,21.17
2017-03-15T00:04:24.834Z,21.29
2017-03-15T00:04:44.141Z,21.27
2017-03-15T00:05:35.728Z,21.26
2017-03-15T00:05:54.526Z,21.23
2017-03-15T00:06:13.827Z,21.27
2017-03-15T00:06:33.115Z,21.26
2017-03-15T00:06:52.423Z,21.26
2017-03-15T00:07:11.195Z,21.39
2017-03-15T00:07:30.487Z,21.3
2017-03-15T00:07:49.264Z,21.36
2017-03-15T00:08:08.056Z,21.3
2017-03-15T00:08:27.391Z,21.35
2017-03-15T00:08:46.730Z,21.26
2017-03-15T00:09:06.034Z,21.39
2017-03-15T00:09:25.351Z,21.35
2017-03-15T00:09:44.151Z,21.23
2017-03-15T00:10:02.933Z,21.38
2017-03-15T00:10:21.236Z,21.33
2017-03-15T00:10:40.545Z,21.21
2017-03-15T00:10:59.333Z,21.21
2017-03-15T00:11:18.613Z,21.24
2017-03-15T00:11:36.367Z,21.2
2017-03-15T00:11:55.762Z,21.2
2017-03-15T00:12:15.078Z,21.11
2017-03-15T00:12:34.414Z,21.05
2017-03-15T00:12:53.743Z,21.02
2017-03-15T00:13:11.485Z,20.93
2017-03-15T00:13:30.800Z,20.94
2017-03-15T00:13:50.108Z,20.84
2017-03-15T00:14:09.383Z,20.86
2017-03-15T00:14:28.671Z,20.93
2017-03-15T00:14:47.476Z,20.89
2017-03-15T00:15:06.253Z,20.84
2017-03-15T00:15:25.060Z,20.87
2017-03-15T00:15:44.354Z,20.87
2017-03-15T00:16:03.664Z,20.87
2017-03-15T00:16:22.447Z,20.91
2017-03-15T00:16:41.751Z,20.86
2017-03-15T00:17:01.052Z,20.94
2017-03-15T00:17:20.329Z,20.98
2017-03-15T00:17:39.643Z,20.96
2017-03-15T00:17:58.935Z,20.99
2017-03-15T00:18:17.738Z,21.01
2017-03-15T00:18:36.494Z,21.04
2017-03-15T00:18:55.303Z,21.08
2017-03-15T00:19:14.084Z,20.99
2017-03-15T00:19:33.392Z,21.01
2017-03-15T00:19:52.713Z,21.02
2017-03-15T00:20:12.023Z,21.01
2017-03-15T00:20:30.853Z,20.94
2017-03-15T00:20:49.639Z,20.94
2017-03-15T00:21:08.458Z,20.93
2017-03-15T00:21:27.776Z,20.96
2017-03-15T00:21:46.553Z,21.04
2017-03-15T00:22:05.905Z,21.01
2017-03-15T00:22:25.224Z,20.99
2017-03-15T00:22:44.088Z,20.99
2017-03-15T00:23:03.413Z,20.99
2017-03-15T00:23:22.719Z,20.99
2017-03-15T00:23:42.052Z,21.01
2017-03-15T00:24:01.370Z,21.01
2017-03-15T00:24:19.104Z,21.06
2017-03-15T00:24:37.896Z,21.04
2017-03-15T00:24:56.705Z,21.11
2017-03-15T00:25:15.179Z,21.09
2017-03-15T00:25:34.484Z,21.14
2017-03-15T00:25:53.813Z,21.2
2017-03-15T00:26:12.096Z,21.17
2017-03-15T00:26:31.410Z,21.19
2017-03-15T00:26:50.210Z,21.19
2017-03-15T00:27:09.524Z,21.31
2017-03-15T00:27:28.844Z,21.24
2017-03-15T00:27:48.144Z,21.24
2017-03-15T00:28:07.454Z,21.21
2017-03-15T00:28:26.234Z,21.35
2017-03-15T00:28:45.012Z,21.33
2017-03-15T00:29:04.320Z,21.26
2017-03-15T00:29:22.083Z,21.26
2017-03-15T00:29:41.359Z,21.29
2017-03-15T00:30:00.143Z,21.35
2017-03-15T00:30:33.422Z,21.35
2017-03-15T00:30:52.737Z,21.35
2017-03-15T00:31:12.082Z,21.39
2017-03-15T00:31:30.910Z,21.41
2017-03-15T00:31:49.693Z,21.44
2017-03-15T00:32:08.490Z,21.33
2017-03-15T00:32:27.820Z,21.35
2017-03-15T00:32:47.172Z,21.27
2017-03-15T00:33:05.944Z,21.24
2017-03-15T00:33:25.253Z,21.21
2017-03-15T00:33:44.578Z,21.26
2017-03-15T00:34:03.360Z,21.24
2017-03-15T00:34:21.638Z,21.19
2017-03-15T00:34:40.427Z,21.24
2017-03-15T00:34:59.226Z,21.21
2017-03-15T00:35:18.731Z,21.16
2017-03-15T00:35:38.006Z,21.19
2017-03-15T00:35:57.315Z,21.26
2017-03-15T00:36:16.112Z,21.17
2017-03-15T00:36:34.887Z,21.19
2017-03-15T00:36:53.154Z,21.2
2017-03-15T00:37:12.460Z,21.2
2017-03-15T00:37:33.073Z,21.06
2017-03-15T00:37:52.377Z,21.08
2017-03-15T00:38:11.688Z,21.06
2017-03-15T00:38:30.983Z,21.12
2017-03-15T00:38:49.748Z,21.05
2017-03-15T00:39:09.011Z,21.11
2017-03-15T00:39:28.308Z,21.09
2017-03-15T00:39:47.592Z,21.05
2017-03-15T00:40:06.559Z,21.08
2017-03-15T00:40:24.343Z,21.19
2017-03-15T00:40:43.664Z,21.06
2017-03-15T00:41:03.001Z,21.2
2017-03-15T00:41:21.798Z,21.23
2017-03-15T00:41:41.062Z,21.21
2017-03-15T00:41:59.844Z,21.21
2017-03-15T00:42:19.172Z,21.17
2017-03-15T00:42:38.532Z,21.16
2017-03-15T00:42:57.327Z,21.2
2017-03-15T00:43:16.109Z,21.17
2017-03-15T00:43:34.882Z,21.21
2017-03-15T00:43:52.654Z,21.26
2017-03-15T00:44:11.992Z,21.21
2017-03-15T00:44:31.367Z,21.3
2017-03-15T00:44:49.649Z,21.3
2017-03-15T00:45:08.931Z,21.29
2017-03-15T00:45:28.251Z,21.23
2017-03-15T00:45:47.590Z,21.31
2017-03-15T00:46:06.362Z,21.29
2017-03-15T00:46:25.678Z,21.26
2017-03-15T00:46:45.243Z,21.26
2017-03-15T00:47:04.575Z,21.31
2017-03-15T00:47:23.871Z,21.35
2017-03-15T00:47:42.682Z,21.33
2017-03-15T00:48:02.047Z,21.29
2017-03-15T00:48:21.340Z,21.21
2017-03-15T00:48:40.651Z,21.19
2017-03-15T00:49:00.291Z,21.29
2017-03-15T00:49:19.079Z,21.21
2017-03-15T00:49:38.395Z,21.21
2017-03-15T00:49:57.683Z,21.21
2017-03-15T00:50:15.954Z,21.31
2017-03-15T00:50:35.259Z,21.29
2017-03-15T00:50:53.503Z,21.23
2017-03-15T00:51:12.309Z,21.3
2017-03-15T00:51:31.617Z,21.29
2017-03-15T00:51:51.069Z,21.21
2017-03-15T00:52:09.352Z,21.24
2017-03-15T00:52:28.610Z,21.23
2017-03-15T00:52:46.930Z,21.31
2017-03-15T00:53:06.232Z,21.27
2017-03-15T00:53:25.546Z,21.35
2017-03-15T00:53:44.907Z,21.42
2017-03-15T00:54:03.761Z,21.39
2017-03-15T00:54:22.768Z,21.41
2017-03-15T00:54:42.090Z,21.35
2017-03-15T00:55:01.583Z,21.3
2017-03-15T00:55:20.927Z,21.35
2017-03-15T00:55:39.711Z,21.27
2017-03-15T00:55:59.012Z,21.3
2017-03-15T00:56:18.284Z,21.24
2017-03-15T00:56:36.545Z,21.27
2017-03-15T00:56:55.581Z,21.27
2017-03-15T00:57:15.606Z,21.19
2017-03-15T00:57:34.687Z,21.31
2017-03-15T00:57:54.339Z,21.21
2017-03-15T00:58:13.656Z,21.27
2017-03-15T00:58:31.945Z,21.21
2017-03-15T00:58:51.256Z,21.36
2017-03-15T00:59:10.072Z,21.35
2017-03-15T00:59:29.345Z,21.38
2017-03-15T00:59:48.176Z,21.45
2017-03-15T01:00:07.700Z,21.44
2017-03-15T01:00:26.538Z,21.49
2017-03-15T01:00:45.342Z,21.51
2017-03-15T01:01:03.190Z,21.48
2017-03-15T01:01:22.459Z,21.45
2017-03-15T01:01:41.237Z,21.49
2017-03-15T01:02:00.544Z,21.56
2017-03-15T01:02:19.366Z,21.49
2017-03-15T01:02:38.689Z,21.44
2017-03-15T01:02:57.476Z,21.49
2017-03-15T01:03:16.259Z,21.51
2017-03-15T01:03:34.560Z,21.54
2017-03-15T01:03:53.363Z,21.59
2017-03-15T01:04:12.140Z,21.57
2017-03-15T01:04:31.471Z,21.56
2017-03-15T01:04:49.770Z,21.59
2017-03-15T01:05:23.040Z,21.61
2017-03-15T01:05:42.329Z,21.56
2017-03-15T01:06:01.615Z,21.67
2017-03-15T01:06:20.929Z,21.61
2017-03-15T01:06:39.734Z,21.59
2017-03-15T01:06:59.066Z,21.59
2017-03-15T01:07:18.362Z,21.56
2017-03-15T01:07:37.650Z,21.54
2017-03-15T01:07:56.946Z,21.63
2017-03-15T01:08:16.255Z,21.61
2017-03-15T01:08:35.020Z,21.66
2017-03-15T01:08:53.284Z,21.6
2017-03-15T01:09:12.621Z,21.56
2017-03-15T01:09:31.925Z,21.66
2017-03-15T01:09:50.718Z,21.6
2017-03-15T01:10:08.988Z,21.61
2017-03-15T01:10:27.774Z,21.66
2017-03-15T01:10:47.068Z,21.66
2017-03-15T01:11:06.404Z,21.67
2017-03-15T01:11:25.822Z,21.66
2017-03-15T01:11:44.459Z,21.59
2017-03-15T01:12:03.308Z,21.57
2017-03-15T01:12:23.191Z,21.49
2017-03-15T01:12:42.423Z,21.63
2017-03-15T01:13:01.232Z,21.59
2017-03-15T01:13:20.535Z,21.7
2017-03-15T01:13:39.343Z,21.72
2017-03-15T01:13:58.693Z,21.67
2017-03-15T01:14:17.488Z,21.76
2017-03-15T01:14:36.816Z,21.63
2017-03-15T01:14:56.088Z,21.54
2017-03-15T01:15:29.352Z,21.67
2017-03-15T01:15:48.154Z,21.64
2017-03-15T01:16:06.946Z,21.59
2017-03-15T01:16:25.216Z,21.67
2017-03-15T01:16:44.542Z,21.67
2017-03-15T01:17:02.309Z,21.6
2017-03-15T01:17:21.610Z,21.69
2017-03-15T01:17:40.372Z,21.72
2017-03-15T01:17:59.667Z,21.69
2017-03-15T01:18:17.916Z,21.75
2017-03-15T01:18:37.219Z,21.66
2017-03-15T01:18:56.016Z,21.57
2017-03-15T01:19:14.802Z,21.57
2017-03-15T01:19:34.103Z,21.64
2017-03-15T01:19:52.910Z,21.66
2017-03-15T01:20:11.710Z,21.6
2017-03-15T01:20:31.004Z,21.49
2017-03-15T01:20:49.772Z,21.53
2017-03-15T01:21:09.063Z,21.56
2017-03-15T01:21:28.412Z,21.54
2017-03-15T01:21:47.527Z,21.54
2017-03-15T01:22:05.790Z,21.6
2017-03-15T01:22:24.682Z,21.61
2017-03-15T01:22:43.454Z,21.54
2017-03-15T01:23:02.761Z,21.54
2017-03-15T01:23:22.083Z,21.48
2017-03-15T01:23:41.410Z,21.51
2017-03-15T01:24:00.243Z,21.46
2017-03-15T01:24:18.501Z,21.45
2017-03-15T01:24:37.793Z,21.42
2017-03-15T01:24:55.547Z,21.41
2017-03-15T01:25:14.839Z,21.46
2017-03-15T01:25:34.129Z,21.45
2017-03-15T01:25:52.932Z,21.46
2017-03-15T01:26:11.727Z,21.42
2017-03-15T01:26:31.045Z,21.46
2017-03-15T01:26:49.846Z,21.42
2017-03-15T01:27:08.613Z,21.46
2017-03-15T01:27:27.924Z,21.49
2017-03-15T01:27:46.692Z,21.48
2017-03-15T01:28:05.465Z,21.56
2017-03-15T01:28:24.796Z,21.6
2017-03-15T01:28:44.104Z,21.59
2017-03-15T01:29:02.915Z,21.61
2017-03-15T01:29:21.708Z,21.63
2017-03-15T01:29:39.445Z,21.69
2017-03-15T01:29:58.731Z,21.7
2017-03-15T01:30:18.014Z,21.64
2017-03-15T01:30:36.808Z,21.74
2017-03-15T01:30:56.088Z,21.79
2017-03-15T01:31:15.419Z,21.78
2017-03-15T01:31:34.741Z,21.79
2017-03-15T01:31:54.828Z,21.75
2017-03-15T01:32:14.115Z,21.76
2017-03-15T01:32:32.903Z,21.78
2017-03-15T01:32:52.193Z,21.79
2017-03-15T01:33:10.986Z,21.78
2017-03-15T01:33:30.316Z,21.78
2017-03-15T01:33:49.613Z,21.81
2017-03-15T01:34:08.920Z,21.79
2017-03-15T01:34:27.710Z,21.86
2017-03-15T01:34:46.483Z,21.91
2017-03-15T01:35:05.263Z,21.76
2017-03-15T01:35:24.070Z,21.7
2017-03-15T01:35:43.359Z,21.66
2017-03-15T01:36:02.697Z,21.54
2017-03-15T01:36:21.486Z,21.51
2017-03-15T01:36:40.781Z,21.49
2017-03-15T01:36:59.039Z,21.57
2017-03-15T01:37:18.339Z,21.41
2017-03-15T01:37:37.137Z,21.41
2017-03-15T01:37:56.450Z,21.41
2017-03-15T01:38:15.785Z,21.46
2017-03-15T01:38:35.069Z,21.48
2017-03-15T01:38:54.372Z,21.51
2017-03-15T01:39:13.177Z,21.48
2017-03-15T01:39:31.957Z,21.41
2017-03-15T01:39:50.221Z,21.48
2017-03-15T01:40:09.576Z,21.54
2017-03-15T01:40:27.859Z,21.48
2017-03-15T01:40:47.175Z,21.54
2017-03-15T01:41:05.961Z,21.53
2017-03-15T01:41:24.747Z,21.56
2017-03-15T01:41:44.080Z,21.49
2017-03-15T01:42:03.409Z,21.63
2017-03-15T01:42:22.195Z,21.59
2017-03-15T01:42:41.500Z,21.6
2017-03-15T01:43:00.272Z,21.64
2017-03-15T01:43:19.064Z,21.66
2017-03-15T01:43:38.395Z,21.67
2017-03-15T01:43:57.195Z,21.69
2017-03-15T01:44:16.497Z,21.69
2017-03-15T01:44:35.294Z,21.63
2017-03-15T01:44:54.594Z,21.72
2017-03-15T01:45:12.877Z,21.6
2017-03-15T01:45:31.665Z,21.7
2017-03-15T01:45:50.955Z,21.69
2017-03-15T01:46:09.257Z,21.74
2017-03-15T01:46:28.589Z,21.57
2017-03-15T01:46:47.885Z,21.57
2017-03-15T01:47:06.676Z,21.69
2017-03-15T01:47:25.474Z,21.63
2017-03-15T01:47:44.257Z,21.57
2017-03-15T01:48:03.559Z,21.7
2017-03-15T01:48:22.868Z,21.72
2017-03-15T01:48:41.669Z,21.74
2017-03-15T01:49:00.969Z,21.6
2017-03-15T01:49:20.278Z,21.6
2017-03-15T01:49:39.062Z,21.54
2017-03-15T01:49:58.412Z,21.63
2017-03-15T01:50:16.696Z,21.69
2017-03-15T01:50:36.567Z,21.74
2017-03-15T01:50:56.123Z,21.74
2017-03-15T01:51:15.460Z,21.61
2017-03-15T01:51:34.787Z,21.74
2017-03-15T01:51:55.099Z,21.78
2017-03-15T01:52:14.408Z,21.7
2017-03-15T01:52:33.712Z,21.76
2017-03-15T01:52:53.008Z,21.84
2017-03-15T01:53:12.318Z,21.76
2017-03-15T01:53:31.613Z,21.85
2017-03-15T01:53:50.413Z,21.86
2017-03-15T01:54:09.724Z,21.82
2017-03-15T01:54:29.016Z,21.85
2017-03-15T01:54:48.321Z,21.89
2017-03-15T01:55:07.680Z,21.78
2017-03-15T01:55:26.979Z,21.85
2017-03-15T01:55:46.281Z,21.76
2017-03-15T01:56:05.600Z,21.92
2017-03-15T01:56:24.900Z,21.91
2017-03-15T01:56:44.217Z,21.85
2017-03-15T01:57:03.038Z,21.84
2017-03-15T01:57:21.835Z,21.97
2017-03-15T01:57:40.082Z,21.89
2017-03-15T01:57:59.391Z,21.75
2017-03-15T01:58:18.691Z,21.76
2017-03-15T01:58:37.474Z,21.74
2017-03-15T01:58:55.759Z,21.78
2017-03-15T01:59:15.081Z,21.74
2017-03-15T01:59:34.370Z,21.81
2017-03-15T01:59:53.150Z,21.78
2017-03-15T02:00:12.615Z,21.82
2017-03-15T02:00:31.934Z,21.7
2017-03-15T02:00:50.176Z,21.75
2017-03-15T02:01:09.489Z,21.78
2017-03-15T02:01:28.830Z,21.74
2017-03-15T02:01:47.124Z,21.67
2017-03-15T02:02:06.429Z,21.7
2017-03-15T02:02:25.171Z,21.6
2017-03-15T02:02:44.459Z,21.6
2017-03-15T02:03:03.769Z,21.57
2017-03-15T02:03:22.561Z,21.6
2017-03-15T02:03:41.871Z,21.56
2017-03-15T02:04:01.199Z,21.57
2017-03-15T02:04:20.495Z,21.63
2017-03-15T02:04:39.806Z,21.51
2017-03-15T02:04:59.090Z,21.49
2017-03-15T02:05:32.352Z,21.46
2017-03-15T02:05:51.648Z,21.41
2017-03-15T02:06:10.957Z,21.45
2017-03-15T02:06:30.285Z,21.44
2017-03-15T02:06:48.560Z,21.42
2017-03-15T02:07:07.351Z,21.46
2017-03-15T02:07:26.658Z,21.41
2017-03-15T02:07:45.941Z,21.35
2017-03-15T02:08:05.254Z,21.45
2017-03-15T02:08:24.049Z,21.39
2017-03-15T02:08:42.845Z,21.39
2017-03-15T02:09:00.590Z,21.38
2017-03-15T02:09:19.878Z,21.41
2017-03-15T02:09:39.188Z,21.45
2017-03-15T02:09:58.503Z,21.42
2017-03-15T02:10:17.829Z,21.42
2017-03-15T02:10:37.119Z,21.39
2017-03-15T02:10:56.410Z,21.48
2017-03-15T02:11:15.720Z,21.51
2017-03-15T02:11:34.503Z,21.54
2017-03-15T02:11:53.384Z,21.61
2017-03-15T02:12:12.173Z,21.63
2017-03-15T02:12:30.428Z,21.6
2017-03-15T02:12:49.751Z,21.56
2017-03-15T02:13:08.551Z,21.57
2017-03-15T02:13:27.889Z,21.6
2017-03-15T02:13:46.654Z,21.72
2017-03-15T02:14:05.932Z,21.74
2017-03-15T02:14:24.716Z,21.78
2017-03-15T02:14:43.513Z,21.72
2017-03-15T02:15:02.500Z,21.81
2017-03-15T02:15:21.291Z,21.78
2017-03-15T02:15:39.569Z,21.76
2017-03-15T02:15:57.841Z,21.79
2017-03-15T02:16:17.147Z,21.76
2017-03-15T02:16:36.446Z,21.85
2017-03-15T02:16:55.734Z,21.84
2017-03-15T02:17:15.020Z,21.75
2017-03-15T02:17:34.348Z,21.84
2017-03-15T02:17:53.140Z,21.84
2017-03-15T02:18:12.463Z,21.91
2017-03-15T02:18:31.771Z,21.97
2017-03-15T02:18:50.540Z,21.91
2017-03-15T02:19:09.349Z,22.02
2017-03-15T02:19:28.648Z,21.98
2017-03-15T02:19:47.420Z,22.02
2017-03-15T02:20:05.694Z,22.1
2017-03-15T02:20:24.498Z,22.07
2017-03-15T02:20:42.786Z,22.04
2017-03-15T02:21:02.094Z,21.92
2017-03-15T02:21:20.888Z,22
2017-03-15T02:21:39.649Z,21.89
2017-03-15T02:21:59.169Z,21.82
2017-03-15T02:22:18.517Z,21.78
2017-03-15T02:22:37.273Z,21.79
2017-03-15T02:22:56.586Z,21.76
2017-03-15T02:23:15.373Z,21.86
2017-03-15T02:23:34.681Z,21.84
2017-03-15T02:23:53.467Z,21.85
2017-03-15T02:24:12.784Z,21.85
2017-03-15T02:24:31.590Z,21.85
2017-03-15T02:24:50.363Z,21.91
2017-03-15T02:25:09.128Z,21.84
2017-03-15T02:25:27.882Z,21.84
2017-03-15T02:25:47.174Z,21.98
2017-03-15T02:26:06.495Z,21.85
2017-03-15T02:26:25.798Z,22
2017-03-15T02:26:45.137Z,21.95
2017-03-15T02:27:04.489Z,21.95
2017-03-15T02:27:23.842Z,21.98
2017-03-15T02:27:42.113Z,21.91
2017-03-15T02:28:01.045Z,21.94
2017-03-15T02:28:21.010Z,21.86
2017-03-15T02:28:40.901Z,21.85
2017-03-15T02:29:00.282Z,21.91
2017-03-15T02:29:19.591Z,21.91
2017-03-15T02:29:37.865Z,21.85
2017-03-15T02:29:57.146Z,21.86
2017-03-15T02:30:15.936Z,21.95
2017-03-15T02:30:34.687Z,21.91
2017-03-15T02:30:54.014Z,21.95
2017-03-15T02:31:12.279Z,22
2017-03-15T02:31:31.599Z,22.04
2017-03-15T02:31:49.863Z,22.07
2017-03-15T02:32:08.130Z,22.04
2017-03-15T02:32:26.989Z,22.07
2017-03-15T02:32:45.763Z,22.15
2017-03-15T02:33:04.549Z,22.12
2017-03-15T02:33:23.334Z,22.12
2017-03-15T02:33:42.133Z,22.15
2017-03-15T02:34:01.442Z,22.13
2017-03-15T02:34:20.237Z,22.04
2017-03-15T02:34:38.479Z,22.1
2017-03-15T02:34:57.239Z,22.13
2017-03-15T02:35:16.541Z,22.1
2017-03-15T02:35:35.805Z,22.04
2017-03-15T02:35:54.574Z,22.1
2017-03-15T02:36:12.848Z,22.08
2017-03-15T02:36:32.116Z,22.07
2017-03-15T02:36:51.453Z,22.05
2017-03-15T02:37:09.240Z,22
2017-03-15T02:37:28.554Z,22.01
2017-03-15T02:37:47.346Z,22.1
2017-03-15T02:38:06.636Z,22.07
2017-03-15T02:38:24.896Z,22.04
2017-03-15T02:38:44.183Z,22.07
2017-03-15T02:39:02.471Z,22.01
2017-03-15T02:39:21.809Z,22.07
2017-03-15T02:39:40.079Z,22.05
2017-03-15T02:39:58.845Z,22.1
2017-03-15T02:40:18.558Z,22.1
2017-03-15T02:40:37.960Z,22.16
2017-03-15T02:40:56.792Z,22.13
2017-03-15T02:41:16.371Z,22.13
2017-03-15T02:41:34.620Z,22.16
2017-03-15T02:41:53.404Z,22.15
2017-03-15T02:42:12.718Z,22.16
2017-03-15T02:42:32.033Z,22.17
2017-03-15T02:42:50.678Z,22.19
2017-03-15T02:43:09.971Z,22.17
2017-03-15T02:43:29.268Z,22.22
2017-03-15T02:43:48.582Z,22.22
2017-03-15T02:44:06.870Z,22.28
2017-03-15T02:44:26.153Z,22.26
2017-03-15T02:44:45.444Z,22.26
2017-03-15T02:45:04.743Z,22.23
2017-03-15T02:45:24.044Z,22.28
2017-03-15T02:45:42.305Z,22.19
2017-03-15T02:46:01.618Z,22.19
2017-03-15T02:46:20.406Z,22.19
2017-03-15T02:46:39.166Z,22.19
2017-03-15T02:46:58.469Z,22.13
2017-03-15T02:47:17.319Z,22.17
2017-03-15T02:47:36.661Z,22.16
2017-03-15T02:47:55.966Z,22.15
2017-03-15T02:48:15.339Z,22.23
2017-03-15T02:48:34.642Z,22.19
2017-03-15T02:48:53.432Z,22.2
2017-03-15T02:49:12.730Z,22.22
2017-03-15T02:49:32.053Z,22.24
2017-03-15T02:49:50.864Z,22.17
2017-03-15T02:50:10.199Z,22.16
2017-03-15T02:50:28.983Z,22.01
2017-03-15T02:50:48.256Z,22.16
2017-03-15T02:51:07.540Z,22.05
2017-03-15T02:51:26.865Z,22.13
2017-03-15T02:51:46.165Z,22.19
2017-03-15T02:52:04.925Z,22.13
2017-03-15T02:52:23.714Z,22.13
2017-03-15T02:52:43.037Z,22.2
2017-03-15T02:53:02.346Z,22.17
2017-03-15T02:53:21.689Z,22.16
2017-03-15T02:53:40.471Z,22.16
2017-03-15T02:53:59.783Z,22.16
2017-03-15T02:54:19.058Z,22.2
2017-03-15T02:54:37.827Z,22.12
2017-03-15T02:54:56.590Z,22.16
2017-03-15T02:55:15.364Z,22.16
2017-03-15T02:55:34.685Z,22.2
2017-03-15T02:55:53.478Z,22.15
2017-03-15T02:56:12.845Z,22.12
2017-03-15T02:56:32.164Z,22.05
2017-03-15T02:56:51.717Z,22.07
2017-03-15T02:57:11.018Z,22.1
2017-03-15T02:57:29.797Z,22.07
2017-03-15T02:57:48.563Z,21.89
2017-03-15T02:58:07.870Z,22.07
2017-03-15T02:58:27.160Z,22
2017-03-15T02:58:45.442Z,22.04
2017-03-15T02:59:04.767Z,22.02
2017-03-15T02:59:23.566Z,22.05
2017-03-15T02:59:42.371Z,22
2017-03-15T03:00:01.682Z,22.05
2017-03-15T03:00:21.006Z,22.13
2017-03-15T03:00:39.809Z,22.04
2017-03-15T03:00:59.132Z,22.15
2017-03-15T03:01:18.488Z,22.15
2017-03-15T03:01:37.651Z,22.17
2017-03-15T03:01:56.972Z,22.12
2017-03-15T03:02:16.308Z,22.15
2017-03-15T03:02:35.632Z,22.17
2017-03-15T03:02:54.922Z,22.1
2017-03-15T03:03:14.230Z,22.13
2017-03-15T03:03:32.990Z,22.15
2017-03-15T03:03:52.287Z,22.16
2017-03-15T03:04:11.594Z,22.19
2017-03-15T03:04:30.895Z,22.2
2017-03-15T03:04:50.205Z,22.26
2017-03-15T03:05:08.978Z,22.17
2017-03-15T03:05:28.312Z,22.2
2017-03-15T03:05:47.102Z,22.13
2017-03-15T03:06:06.388Z,22.24
2017-03-15T03:06:25.695Z,22.17
2017-03-15T03:06:44.526Z,22.28
2017-03-15T03:07:03.301Z,22.19
2017-03-15T03:07:22.101Z,22.3
2017-03-15T03:07:40.849Z,22.26
2017-03-15T03:08:00.155Z,22.23
2017-03-15T03:08:19.483Z,22.2
2017-03-15T03:08:37.739Z,22.28
2017-03-15T03:08:57.046Z,22.3
2017-03-15T03:09:16.403Z,22.24
2017-03-15T03:09:35.209Z,22.28
2017-03-15T03:09:52.988Z,22.22
2017-03-15T03:10:11.792Z,22.28
2017-03-15T03:10:30.536Z,22.22
2017-03-15T03:10:49.362Z,22.24
2017-03-15T03:11:08.647Z,22.19
2017-03-15T03:11:27.927Z,22.24
2017-03-15T03:11:46.737Z,22.19
2017-03-15T03:12:06.028Z,22.28
2017-03-15T03:12:25.340Z,22.24
2017-03-15T03:12:44.660Z,22.28
2017-03-15T03:13:03.435Z,22.3
2017-03-15T03:13:22.739Z,22.3
2017-03-15T03:13:41.523Z,22.2
2017-03-15T03:14:00.849Z,22.2
2017-03-15T03:14:20.178Z,22.19
2017-03-15T03:14:38.972Z,22.16
2017-03-15T03:14:57.750Z,22.2
2017-03-15T03:15:16.533Z,22.23
2017-03-15T03:15:35.852Z,22.28
2017-03-15T03:15:54.650Z,22.24
2017-03-15T03:16:13.433Z,22.23
2017-03-15T03:16:31.689Z,22.39
2017-03-15T03:16:50.576Z,22.3
2017-03-15T03:17:09.370Z,22.32
2017-03-15T03:17:28.674Z,22.34
2017-03-15T03:17:47.477Z,22.39
2017-03-15T03:18:06.770Z,22.39
2017-03-15T03:18:25.042Z,22.37
2017-03-15T03:18:43.830Z,22.32
2017-03-15T03:19:02.621Z,22.41
2017-03-15T03:19:21.927Z,22.26
2017-03-15T03:19:40.716Z,22.2
2017-03-15T03:20:00.023Z,22.28
2017-03-15T03:20:17.780Z,22.28
2017-03-15T03:20:36.570Z,22.31
2017-03-15T03:20:55.891Z,22.26
2017-03-15T03:21:15.189Z,22.19
2017-03-15T03:21:34.509Z,22.17
2017-03-15T03:21:53.389Z,22.17
2017-03-15T03:22:12.189Z,22.16
2017-03-15T03:22:30.962Z,22.12
2017-03-15T03:22:50.261Z,22.07
2017-03-15T03:23:09.555Z,22.04
2017-03-15T03:23:28.837Z,22.02
2017-03-15T03:23:47.634Z,22.04
2017-03-15T03:24:06.966Z,22.04
2017-03-15T03:24:25.756Z,22.07
2017-03-15T03:24:44.573Z,22.05
2017-03-15T03:25:03.331Z,22.1
2017-03-15T03:25:21.600Z,22
2017-03-15T03:25:40.370Z,22.04
2017-03-15T03:25:59.159Z,22.15
2017-03-15T03:26:18.469Z,22
2017-03-15T03:26:37.771Z,22.08
2017-03-15T03:26:56.245Z,22.02
2017-03-15T03:27:15.550Z,22.1
2017-03-15T03:27:34.333Z,22.07
2017-03-15T03:27:53.121Z,22.05
2017-03-15T03:28:11.911Z,22.04
2017-03-15T03:28:30.699Z,22.01
2017-03-15T03:28:49.977Z,22.05
2017-03-15T03:29:08.744Z,22.05
2017-03-15T03:29:28.065Z,22.04
2017-03-15T03:29:47.395Z,22.13
2017-03-15T03:30:06.728Z,22.16
2017-03-15T03:30:26.023Z,22.12
2017-03-15T03:30:45.342Z,22.07
2017-03-15T03:31:04.653Z,22.13
2017-03-15T03:31:23.964Z,22.05
2017-03-15T03:31:43.274Z,22.1
2017-03-15T03:32:02.603Z,22.1
2017-03-15T03:32:21.360Z,22.12
2017-03-15T03:32:40.142Z,22.16
2017-03-15T03:32:59.475Z,22.15
2017-03-15T03:33:19.423Z,22.16
2017-03-15T03:33:38.712Z,22.13
2017-03-15T03:33:56.975Z,22.13
2017-03-15T03:34:16.286Z,22.12
2017-03-15T03:34:35.613Z,22.15
2017-03-15T03:34:54.916Z,22.13
2017-03-15T03:35:14.175Z,22.13
2017-03-15T03:35:32.449Z,22.15
2017-03-15T03:35:50.695Z,22.2
2017-03-15T03:36:09.963Z,22.24
2017-03-15T03:36:29.237Z,22.2
2017-03-15T03:36:48.952Z,22.2
2017-03-15T03:37:07.715Z,22.23
2017-03-15T03:37:25.990Z,22.22
2017-03-15T03:37:44.792Z,22.13
2017-03-15T03:38:03.065Z,22.22
2017-03-15T03:38:21.862Z,22.15
2017-03-15T03:38:41.151Z,22.17
2017-03-15T03:38:59.951Z,22.24
2017-03-15T03:39:18.716Z,22.2
2017-03-15T03:39:37.025Z,22.15
2017-03-15T03:39:56.320Z,22.17
2017-03-15T03:40:15.850Z,22.17
2017-03-15T03:40:35.142Z,22.23
2017-03-15T03:40:53.939Z,22.17
2017-03-15T03:41:13.230Z,22.2
2017-03-15T03:41:32.522Z,22.15
2017-03-15T03:41:51.891Z,22.2
2017-03-15T03:42:10.686Z,22.2
2017-03-15T03:42:30.343Z,22.28
2017-03-15T03:42:49.642Z,22.15
2017-03-15T03:43:08.911Z,22.19
2017-03-15T03:43:27.728Z,22.12
2017-03-15T03:43:47.027Z,22.12
2017-03-15T03:44:06.306Z,22.1
2017-03-15T03:44:25.080Z,22.12
2017-03-15T03:44:44.351Z,22.16
2017-03-15T03:45:03.657Z,22.15
2017-03-15T03:45:22.984Z,22.17
2017-03-15T03:45:42.284Z,22.19
2017-03-15T03:46:00.551Z,22.2
2017-03-15T03:46:19.831Z,22.22
2017-03-15T03:46:39.137Z,22.19
2017-03-15T03:46:57.921Z,22.31
2017-03-15T03:47:16.709Z,22.28
2017-03-15T03:47:36.045Z,22.24
2017-03-15T03:47:55.349Z,22.31
2017-03-15T03:48:14.153Z,22.31
2017-03-15T03:48:33.451Z,22.28
2017-03-15T03:48:52.748Z,22.3
2017-03-15T03:49:12.059Z,22.31
2017-03-15T03:49:30.840Z,22.28
2017-03-15T03:49:49.648Z,22.28
2017-03-15T03:50:08.969Z,22.31
2017-03-15T03:50:27.741Z,22.26
2017-03-15T03:50:47.035Z,22.26
2017-03-15T03:51:05.815Z,22.39
2017-03-15T03:51:25.106Z,22.31
2017-03-15T03:51:44.401Z,22.31
2017-03-15T03:52:03.677Z,22.28
2017-03-15T03:52:22.969Z,22.28
2017-03-15T03:52:41.240Z,22.31
2017-03-15T03:53:00.563Z,22.3
2017-03-15T03:53:19.340Z,22.28
2017-03-15T03:53:38.658Z,22.28
2017-03-15T03:53:57.950Z,22.22
2017-03-15T03:54:16.248Z,22.28
2017-03-15T03:54:35.554Z,22.28
2017-03-15T03:54:54.332Z,22.26
2017-03-15T03:55:12.091Z,22.24
2017-03-15T03:55:31.412Z,22.23
2017-03-15T03:55:50.729Z,22.3
2017-03-15T03:56:10.019Z,22.26
2017-03-15T03:56:29.328Z,22.34
2017-03-15T03:56:47.626Z,22.24
2017-03-15T03:57:07.217Z,22.26
2017-03-15T03:57:26.031Z,22.3
2017-03-15T03:57:44.871Z,22.3
2017-03-15T03:58:03.154Z,22.31
2017-03-15T03:58:21.403Z,22.28
2017-03-15T03:58:40.193Z,22.2
2017-03-15T03:58:57.948Z,22.24
2017-03-15T03:59:16.765Z,22.3
2017-03-15T03:59:35.547Z,22.28
2017-03-15T03:59:54.332Z,22.31
2017-03-15T04:00:13.642Z,22.28
2017-03-15T04:00:33.086Z,22.22
2017-03-15T04:00:52.402Z,22.17
2017-03-15T04:01:11.223Z,22.17
2017-03-15T04:01:30.538Z,22.26
2017-03-15T04:01:48.817Z,22.24
2017-03-15T04:02:08.130Z,22.32
2017-03-15T04:02:27.409Z,22.22
2017-03-15T04:02:46.735Z,22.28
2017-03-15T04:03:06.055Z,22.28
2017-03-15T04:03:24.840Z,22.34
2017-03-15T04:03:43.609Z,22.26
2017-03-15T04:04:02.917Z,22.31
2017-03-15T04:04:22.212Z,22.26
2017-03-15T04:04:40.495Z,22.28
2017-03-15T04:04:59.836Z,22.32
2017-03-15T04:05:32.596Z,22.35
2017-03-15T04:05:51.882Z,22.3
2017-03-15T04:06:11.170Z,22.34
2017-03-15T04:06:30.465Z,22.34
2017-03-15T04:06:49.814Z,22.34
2017-03-15T04:07:09.140Z,22.34
2017-03-15T04:07:28.430Z,22.3
2017-03-15T04:07:47.264Z,22.31
2017-03-15T04:08:06.545Z,22.34